sensor_id;sensor_type;location;lat;lon;timestamp;pressure;altitude;pressure_sealevel;temperature;humidity
60611;BME280;46439;51.164;13.572;2022-12-11T00:01:11;99449.52;;;0.24;90.72
60611;BME280;46439;51.164;13.572;2022-12-11T00:03:40;99446.41;;;0.26;90.98
60611;BME280;46439;51.164;13.572;2022-12-11T00:06:11;99445.69;;;0.32;90.90
60611;BME280;46439;51.164;13.572;2022-12-11T00:08:40;99447.14;;;0.43;91.37
60611;BME280;46439;51.164;13.572;2022-12-11T00:11:10;99444.89;;;0.55;91.68
60611;BME280;46439;51.164;13.572;2022-12-11T00:13:39;99448.45;;;0.59;91.45
60611;BME280;46439;51.164;13.572;2022-12-11T00:16:08;99447.48;;;0.41;91.29
60611;BME280;46439;51.164;13.572;2022-12-11T00:18:37;99443.69;;;0.26;90.91
60611;BME280;46439;51.164;13.572;2022-12-11T00:21:09;99440.69;;;0.24;90.62
60611;BME280;46439;51.164;13.572;2022-12-11T00:23:39;99439.11;;;0.17;90.74
60611;BME280;46439;51.164;13.572;2022-12-11T00:26:11;99438.06;;;0.17;90.51
60611;BME280;46439;51.164;13.572;2022-12-11T00:28:40;99440.44;;;0.18;90.58
60611;BME280;46439;51.164;13.572;2022-12-11T00:31:10;99445.09;;;0.14;90.56
60611;BME280;46439;51.164;13.572;2022-12-11T00:33:40;99439.23;;;0.07;90.54
60611;BME280;46439;51.164;13.572;2022-12-11T00:36:13;99434.80;;;0.07;90.38
60611;BME280;46439;51.164;13.572;2022-12-11T00:38:44;99438.77;;;0.13;90.64
60611;BME280;46439;51.164;13.572;2022-12-11T00:41:13;99442.48;;;0.17;90.72
60611;BME280;46439;51.164;13.572;2022-12-11T00:43:42;99440.70;;;0.29;91.08
60611;BME280;46439;51.164;13.572;2022-12-11T00:46:11;99446.49;;;0.35;91.21
60611;BME280;46439;51.164;13.572;2022-12-11T00:48:40;99450.73;;;0.47;91.65
60611;BME280;46439;51.164;13.572;2022-12-11T00:51:09;99451.41;;;0.51;91.43
60611;BME280;46439;51.164;13.572;2022-12-11T00:53:38;99450.67;;;0.54;91.60
60611;BME280;46439;51.164;13.572;2022-12-11T00:56:13;99451.19;;;0.51;91.53
60611;BME280;46439;51.164;13.572;2022-12-11T00:58:43;99449.34;;;0.54;91.42
60611;BME280;46439;51.164;13.572;2022-12-11T01:01:14;99451.29;;;0.52;91.45
60611;BME280;46439;51.164;13.572;2022-12-11T01:03:44;99449.70;;;0.57;91.25
60611;BME280;46439;51.164;13.572;2022-12-11T01:06:16;99449.17;;;0.61;91.46
60611;BME280;46439;51.164;13.572;2022-12-11T01:08:46;99449.23;;;0.56;91.39
60611;BME280;46439;51.164;13.572;2022-12-11T01:11:16;99447.11;;;0.50;91.18
60611;BME280;46439;51.164;13.572;2022-12-11T01:13:45;99447.59;;;0.52;91.34
60611;BME280;46439;51.164;13.572;2022-12-11T01:16:15;99448.13;;;0.46;91.09
60611;BME280;46439;51.164;13.572;2022-12-11T01:18:44;99452.70;;;0.44;91.06
60611;BME280;46439;51.164;13.572;2022-12-11T01:21:14;99451.27;;;0.49;91.15
60611;BME280;46439;51.164;13.572;2022-12-11T01:23:42;99449.80;;;0.49;91.02
60611;BME280;46439;51.164;13.572;2022-12-11T01:26:12;99449.36;;;0.46;91.16
60611;BME280;46439;51.164;13.572;2022-12-11T01:28:42;99447.63;;;0.54;91.23
60611;BME280;46439;51.164;13.572;2022-12-11T01:31:12;99453.39;;;0.57;91.56
60611;BME280;46439;51.164;13.572;2022-12-11T01:33:42;99456.25;;;0.59;91.46
60611;BME280;46439;51.164;13.572;2022-12-11T01:36:14;99458.67;;;0.62;91.58
60611;BME280;46439;51.164;13.572;2022-12-11T01:38:44;99460.16;;;0.65;91.43
60611;BME280;46439;51.164;13.572;2022-12-11T01:41:12;99461.63;;;0.69;91.54
60611;BME280;46439;51.164;13.572;2022-12-11T01:44:03;99460.71;;;0.71;91.73
60611;BME280;46439;51.164;13.572;2022-12-11T01:46:33;99463.64;;;0.66;91.75
60611;BME280;46439;51.164;13.572;2022-12-11T01:49:04;99462.17;;;0.65;91.40
60611;BME280;46439;51.164;13.572;2022-12-11T01:51:34;99462.74;;;0.62;91.54
60611;BME280;46439;51.164;13.572;2022-12-11T01:54:08;99460.65;;;0.59;91.30
60611;BME280;46439;51.164;13.572;2022-12-11T01:56:40;99457.51;;;0.61;91.38
60611;BME280;46439;51.164;13.572;2022-12-11T01:59:10;99458.98;;;0.63;91.58
60611;BME280;46439;51.164;13.572;2022-12-11T02:01:42;99458.48;;;0.60;91.44
60611;BME280;46439;51.164;13.572;2022-12-11T02:04:12;99457.65;;;0.62;91.54
60611;BME280;46439;51.164;13.572;2022-12-11T02:06:45;99461.70;;;0.57;91.50
60611;BME280;46439;51.164;13.572;2022-12-11T02:09:15;99460.20;;;0.61;91.70
60611;BME280;46439;51.164;13.572;2022-12-11T02:11:54;99456.89;;;0.60;91.45
60611;BME280;46439;51.164;13.572;2022-12-11T02:14:30;99453.41;;;0.57;91.45
60611;BME280;46439;51.164;13.572;2022-12-11T02:17:06;99453.48;;;0.58;91.15
60611;BME280;46439;51.164;13.572;2022-12-11T02:19:56;99451.63;;;0.60;91.39
60611;BME280;46439;51.164;13.572;2022-12-11T02:22:43;99451.55;;;0.65;91.38
60611;BME280;46439;51.164;13.572;2022-12-11T02:25:21;99454.44;;;0.70;91.89
60611;BME280;46439;51.164;13.572;2022-12-11T02:30:25;99452.55;;;0.67;91.63
60611;BME280;46439;51.164;13.572;2022-12-11T02:32:56;99448.52;;;0.58;91.49
60611;BME280;46439;51.164;13.572;2022-12-11T02:35:27;99446.03;;;0.61;91.30
60611;BME280;46439;51.164;13.572;2022-12-11T02:38:01;99442.47;;;0.65;91.44
60611;BME280;46439;51.164;13.572;2022-12-11T02:40:34;99439.34;;;0.71;91.47
60611;BME280;46439;51.164;13.572;2022-12-11T02:43:06;99435.77;;;0.77;91.63
60611;BME280;46439;51.164;13.572;2022-12-11T02:45:39;99436.41;;;0.83;92.02
60611;BME280;46439;51.164;13.572;2022-12-11T02:48:10;99436.77;;;0.85;91.74
60611;BME280;46439;51.164;13.572;2022-12-11T02:50:43;99439.48;;;0.86;91.81
60611;BME280;46439;51.164;13.572;2022-12-11T02:53:15;99443.59;;;0.94;91.85
60611;BME280;46439;51.164;13.572;2022-12-11T02:55:49;99446.19;;;1.01;92.31
60611;BME280;46439;51.164;13.572;2022-12-11T02:58:22;99447.35;;;0.98;92.30
60611;BME280;46439;51.164;13.572;2022-12-11T03:00:53;99441.79;;;0.99;92.42
60611;BME280;46439;51.164;13.572;2022-12-11T03:03:22;99442.73;;;1.02;92.44
60611;BME280;46439;51.164;13.572;2022-12-11T03:05:51;99443.08;;;1.02;92.06
60611;BME280;46439;51.164;13.572;2022-12-11T03:08:20;99443.76;;;1.05;92.27
60611;BME280;46439;51.164;13.572;2022-12-11T03:10:49;99443.70;;;1.05;92.04
60611;BME280;46439;51.164;13.572;2022-12-11T03:13:20;99444.03;;;1.10;92.24
60611;BME280;46439;51.164;13.572;2022-12-11T03:15:56;99442.86;;;1.17;92.22
60611;BME280;46439;51.164;13.572;2022-12-11T03:18:35;99447.14;;;1.15;92.51
60611;BME280;46439;51.164;13.572;2022-12-11T03:21:09;99442.66;;;1.11;92.50
60611;BME280;46439;51.164;13.572;2022-12-11T03:23:43;99440.11;;;1.10;92.53
60611;BME280;46439;51.164;13.572;2022-12-11T03:26:17;99444.90;;;1.10;92.38
60611;BME280;46439;51.164;13.572;2022-12-11T03:28:50;99445.34;;;1.11;91.99
60611;BME280;46439;51.164;13.572;2022-12-11T03:31:26;99445.55;;;1.08;92.32
60611;BME280;46439;51.164;13.572;2022-12-11T03:34:02;99441.14;;;1.12;91.92
60611;BME280;46439;51.164;13.572;2022-12-11T03:36:37;99444.61;;;1.13;92.02
60611;BME280;46439;51.164;13.572;2022-12-11T03:39:11;99445.88;;;1.15;92.26
60611;BME280;46439;51.164;13.572;2022-12-11T03:41:43;99446.65;;;1.12;92.30
60611;BME280;46439;51.164;13.572;2022-12-11T03:44:13;99443.23;;;1.13;92.39
60611;BME280;46439;51.164;13.572;2022-12-11T03:46:43;99444.64;;;1.09;91.96
60611;BME280;46439;51.164;13.572;2022-12-11T03:49:16;99446.20;;;1.03;92.33
60611;BME280;46439;51.164;13.572;2022-12-11T03:51:49;99449.45;;;0.94;91.71
60611;BME280;46439;51.164;13.572;2022-12-11T03:54:19;99446.18;;;0.80;91.52
60611;BME280;46439;51.164;13.572;2022-12-11T03:56:50;99447.97;;;0.65;91.31
60611;BME280;46439;51.164;13.572;2022-12-11T03:59:20;99449.39;;;0.54;91.01
60611;BME280;46439;51.164;13.572;2022-12-11T04:01:49;99443.02;;;0.48;90.98
60611;BME280;46439;51.164;13.572;2022-12-11T04:04:18;99446.77;;;0.43;91.01
60611;BME280;46439;51.164;13.572;2022-12-11T04:06:47;99449.59;;;0.34;90.86
60611;BME280;46439;51.164;13.572;2022-12-11T04:09:15;99451.06;;;0.28;90.94
60611;BME280;46439;51.164;13.572;2022-12-11T04:11:44;99446.50;;;0.20;90.56
60611;BME280;46439;51.164;13.572;2022-12-11T04:14:14;99444.82;;;0.15;90.94
60611;BME280;46439;51.164;13.572;2022-12-11T04:17:01;99448.29;;;0.09;90.78
60611;BME280;46439;51.164;13.572;2022-12-11T04:19:30;99451.39;;;0.01;90.77
60611;BME280;46439;51.164;13.572;2022-12-11T04:22:18;99452.71;;;-0.09;90.54
60611;BME280;46439;51.164;13.572;2022-12-11T04:25:08;99456.50;;;-0.16;90.26
60611;BME280;46439;51.164;13.572;2022-12-11T04:27:36;99458.77;;;-0.20;90.29
60611;BME280;46439;51.164;13.572;2022-12-11T04:30:20;99457.94;;;-0.28;90.16
60611;BME280;46439;51.164;13.572;2022-12-11T04:32:47;99459.46;;;-0.36;90.22
60611;BME280;46439;51.164;13.572;2022-12-11T04:35:16;99459.41;;;-0.37;90.25
60611;BME280;46439;51.164;13.572;2022-12-11T04:37:45;99455.44;;;-0.39;90.21
60611;BME280;46439;51.164;13.572;2022-12-11T04:40:16;99456.86;;;-0.36;90.46
60611;BME280;46439;51.164;13.572;2022-12-11T04:42:46;99456.05;;;-0.35;90.43
60611;BME280;46439;51.164;13.572;2022-12-11T04:45:15;99454.91;;;-0.36;90.63
60611;BME280;46439;51.164;13.572;2022-12-11T04:47:43;99451.36;;;-0.41;90.43
60611;BME280;46439;51.164;13.572;2022-12-11T04:50:13;99450.88;;;-0.50;90.33
60611;BME280;46439;51.164;13.572;2022-12-11T04:52:42;99455.28;;;-0.62;90.17
60611;BME280;46439;51.164;13.572;2022-12-11T04:55:12;99451.94;;;-0.66;89.98
60611;BME280;46439;51.164;13.572;2022-12-11T04:57:41;99450.21;;;-0.67;90.00
60611;BME280;46439;51.164;13.572;2022-12-11T05:00:14;99449.64;;;-0.64;90.17
60611;BME280;46439;51.164;13.572;2022-12-11T05:02:42;99448.25;;;-0.62;90.36
60611;BME280;46439;51.164;13.572;2022-12-11T05:05:11;99443.23;;;-0.59;90.47
60611;BME280;46439;51.164;13.572;2022-12-11T05:07:40;99443.20;;;-0.53;90.38
60611;BME280;46439;51.164;13.572;2022-12-11T05:10:10;99442.05;;;-0.57;90.60
60611;BME280;46439;51.164;13.572;2022-12-11T05:12:39;99449.15;;;-0.60;90.64
60611;BME280;46439;51.164;13.572;2022-12-11T05:15:09;99446.30;;;-0.62;90.33
60611;BME280;46439;51.164;13.572;2022-12-11T05:17:37;99447.68;;;-0.66;90.50
60611;BME280;46439;51.164;13.572;2022-12-11T05:20:08;99443.07;;;-0.66;90.35
60611;BME280;46439;51.164;13.572;2022-12-11T05:22:37;99441.39;;;-0.62;90.51
60611;BME280;46439;51.164;13.572;2022-12-11T05:25:07;99427.84;;;-0.70;90.32
60611;BME280;46439;51.164;13.572;2022-12-11T05:27:36;99429.40;;;-0.69;90.26
60611;BME280;46439;51.164;13.572;2022-12-11T05:30:07;99431.94;;;-0.70;90.23
60611;BME280;46439;51.164;13.572;2022-12-11T05:32:37;99433.59;;;-0.78;90.24
60611;BME280;46439;51.164;13.572;2022-12-11T05:35:08;99432.85;;;-0.87;90.18
60611;BME280;46439;51.164;13.572;2022-12-11T05:37:37;99431.76;;;-0.98;90.18
60611;BME280;46439;51.164;13.572;2022-12-11T05:40:08;99434.89;;;-1.09;89.70
60611;BME280;46439;51.164;13.572;2022-12-11T05:42:37;99433.20;;;-1.12;89.76
60611;BME280;46439;51.164;13.572;2022-12-11T05:45:07;99430.97;;;-1.08;89.86
60611;BME280;46439;51.164;13.572;2022-12-11T05:47:36;99430.23;;;-1.05;89.92
60611;BME280;46439;51.164;13.572;2022-12-11T05:50:05;99426.31;;;-1.05;89.85
60611;BME280;46439;51.164;13.572;2022-12-11T05:52:34;99423.23;;;-1.02;90.00
60611;BME280;46439;51.164;13.572;2022-12-11T05:55:03;99425.70;;;-1.00;90.31
60611;BME280;46439;51.164;13.572;2022-12-11T05:57:31;99425.58;;;-0.98;90.16
60611;BME280;46439;51.164;13.572;2022-12-11T06:00:00;99426.90;;;-0.97;90.15
60611;BME280;46439;51.164;13.572;2022-12-11T06:02:29;99424.90;;;-0.93;90.38
60611;BME280;46439;51.164;13.572;2022-12-11T06:04:57;99425.73;;;-0.88;90.43
60611;BME280;46439;51.164;13.572;2022-12-11T06:07:26;99424.36;;;-0.86;90.52
60611;BME280;46439;51.164;13.572;2022-12-11T06:09:54;99423.27;;;-0.82;90.44
60611;BME280;46439;51.164;13.572;2022-12-11T06:12:23;99420.65;;;-0.78;90.60
60611;BME280;46439;51.164;13.572;2022-12-11T06:14:52;99417.59;;;-0.81;90.62
60611;BME280;46439;51.164;13.572;2022-12-11T06:17:21;99424.64;;;-0.86;90.50
60611;BME280;46439;51.164;13.572;2022-12-11T06:19:50;99426.59;;;-0.90;90.30
60611;BME280;46439;51.164;13.572;2022-12-11T06:22:18;99422.95;;;-0.91;90.50
60611;BME280;46439;51.164;13.572;2022-12-11T06:24:47;99424.56;;;-0.91;90.18
60611;BME280;46439;51.164;13.572;2022-12-11T06:27:16;99426.42;;;-0.90;90.13
60611;BME280;46439;51.164;13.572;2022-12-11T06:29:46;99429.00;;;-0.85;90.26
60611;BME280;46439;51.164;13.572;2022-12-11T06:32:15;99430.59;;;-0.85;90.40
60611;BME280;46439;51.164;13.572;2022-12-11T06:34:44;99432.56;;;-0.90;90.31
60611;BME280;46439;51.164;13.572;2022-12-11T06:37:12;99436.21;;;-0.91;90.24
60611;BME280;46439;51.164;13.572;2022-12-11T06:39:41;99437.98;;;-0.87;90.50
60611;BME280;46439;51.164;13.572;2022-12-11T06:42:09;99436.08;;;-0.80;90.52
60611;BME280;46439;51.164;13.572;2022-12-11T06:44:38;99432.84;;;-0.77;90.41
60611;BME280;46439;51.164;13.572;2022-12-11T06:47:07;99433.62;;;-0.85;90.51
60611;BME280;46439;51.164;13.572;2022-12-11T06:49:36;99436.88;;;-0.88;90.44
60611;BME280;46439;51.164;13.572;2022-12-11T06:52:05;99433.35;;;-0.93;90.50
60611;BME280;46439;51.164;13.572;2022-12-11T06:54:34;99433.66;;;-1.00;90.20
60611;BME280;46439;51.164;13.572;2022-12-11T06:57:03;99437.74;;;-1.07;90.08
60611;BME280;46439;51.164;13.572;2022-12-11T06:59:32;99439.58;;;-1.12;89.99
60611;BME280;46439;51.164;13.572;2022-12-11T07:02:01;99439.13;;;-1.16;89.97
60611;BME280;46439;51.164;13.572;2022-12-11T07:04:30;99437.40;;;-1.16;89.84
60611;BME280;46439;51.164;13.572;2022-12-11T07:06:59;99441.96;;;-1.21;89.92
60611;BME280;46439;51.164;13.572;2022-12-11T07:09:29;99441.83;;;-1.26;89.92
60611;BME280;46439;51.164;13.572;2022-12-11T07:11:58;99445.85;;;-1.34;89.66
60611;BME280;46439;51.164;13.572;2022-12-11T07:14:27;99450.13;;;-1.45;89.44
60611;BME280;46439;51.164;13.572;2022-12-11T07:16:56;99453.73;;;-1.50;89.43
60611;BME280;46439;51.164;13.572;2022-12-11T07:19:26;99453.27;;;-1.56;89.40
60611;BME280;46439;51.164;13.572;2022-12-11T07:21:56;99457.70;;;-1.57;89.39
60611;BME280;46439;51.164;13.572;2022-12-11T07:24:27;99458.02;;;-1.59;89.41
60611;BME280;46439;51.164;13.572;2022-12-11T07:26:56;99457.46;;;-1.62;89.38
60611;BME280;46439;51.164;13.572;2022-12-11T07:29:26;99461.52;;;-1.70;89.27
60611;BME280;46439;51.164;13.572;2022-12-11T07:31:55;99461.94;;;-1.71;89.28
60611;BME280;46439;51.164;13.572;2022-12-11T07:34:24;99462.30;;;-1.73;89.21
60611;BME280;46439;51.164;13.572;2022-12-11T07:36:54;99461.11;;;-1.74;89.10
60611;BME280;46439;51.164;13.572;2022-12-11T07:39:23;99467.73;;;-1.73;89.25
60611;BME280;46439;51.164;13.572;2022-12-11T07:41:53;99468.64;;;-1.70;89.48
60611;BME280;46439;51.164;13.572;2022-12-11T07:44:23;99468.98;;;-1.68;89.44
60611;BME280;46439;51.164;13.572;2022-12-11T07:46:52;99470.45;;;-1.62;89.62
60611;BME280;46439;51.164;13.572;2022-12-11T07:49:21;99471.46;;;-1.59;89.70
60611;BME280;46439;51.164;13.572;2022-12-11T07:51:51;99471.29;;;-1.59;89.67
60611;BME280;46439;51.164;13.572;2022-12-11T07:54:20;99469.61;;;-1.58;89.71
60611;BME280;46439;51.164;13.572;2022-12-11T07:56:49;99470.59;;;-1.54;89.85
60611;BME280;46439;51.164;13.572;2022-12-11T07:59:18;99470.66;;;-1.48;89.77
60611;BME280;46439;51.164;13.572;2022-12-11T08:01:49;99471.65;;;-1.47;89.88
60611;BME280;46439;51.164;13.572;2022-12-11T08:04:18;99477.39;;;-1.46;89.84
60611;BME280;46439;51.164;13.572;2022-12-11T08:06:47;99476.85;;;-1.48;90.02
60611;BME280;46439;51.164;13.572;2022-12-11T08:09:16;99476.98;;;-1.47;89.86
60611;BME280;46439;51.164;13.572;2022-12-11T08:11:51;99477.30;;;-1.47;89.76
60611;BME280;46439;51.164;13.572;2022-12-11T08:14:20;99474.83;;;-1.52;90.02
60611;BME280;46439;51.164;13.572;2022-12-11T08:16:49;99473.48;;;-1.60;89.69
60611;BME280;46439;51.164;13.572;2022-12-11T08:19:20;99471.39;;;-1.65;89.74
60611;BME280;46439;51.164;13.572;2022-12-11T08:21:49;99469.33;;;-1.63;89.64
60611;BME280;46439;51.164;13.572;2022-12-11T08:24:18;99470.16;;;-1.63;89.70
60611;BME280;46439;51.164;13.572;2022-12-11T08:26:48;99472.86;;;-1.61;89.94
60611;BME280;46439;51.164;13.572;2022-12-11T08:29:17;99471.52;;;-1.62;89.80
60611;BME280;46439;51.164;13.572;2022-12-11T08:31:47;99468.73;;;-1.62;89.74
60611;BME280;46439;51.164;13.572;2022-12-11T08:34:16;99465.50;;;-1.60;89.62
60611;BME280;46439;51.164;13.572;2022-12-11T08:36:46;99464.27;;;-1.57;89.80
60611;BME280;46439;51.164;13.572;2022-12-11T08:39:15;99462.22;;;-1.53;89.84
60611;BME280;46439;51.164;13.572;2022-12-11T08:41:44;99463.51;;;-1.46;89.75
60611;BME280;46439;51.164;13.572;2022-12-11T08:44:14;99459.32;;;-1.40;90.08
60611;BME280;46439;51.164;13.572;2022-12-11T08:46:42;99457.86;;;-1.37;90.10
60611;BME280;46439;51.164;13.572;2022-12-11T08:49:12;99452.70;;;-1.37;90.11
60611;BME280;46439;51.164;13.572;2022-12-11T08:51:41;99456.62;;;-1.32;90.25
60611;BME280;46439;51.164;13.572;2022-12-11T08:54:12;99454.96;;;-1.31;90.05
60611;BME280;46439;51.164;13.572;2022-12-11T08:56:41;99455.56;;;-1.30;90.21
60611;BME280;46439;51.164;13.572;2022-12-11T08:59:10;99454.23;;;-1.26;90.17
60611;BME280;46439;51.164;13.572;2022-12-11T09:01:42;99460.30;;;-1.22;90.21
60611;BME280;46439;51.164;13.572;2022-12-11T09:04:12;99465.69;;;-1.21;90.15
60611;BME280;46439;51.164;13.572;2022-12-11T09:06:41;99464.86;;;-1.22;90.21
60611;BME280;46439;51.164;13.572;2022-12-11T09:09:10;99462.75;;;-1.20;90.22
60611;BME280;46439;51.164;13.572;2022-12-11T09:11:41;99463.34;;;-1.18;90.19
60611;BME280;46439;51.164;13.572;2022-12-11T09:14:10;99462.33;;;-1.17;90.39
60611;BME280;46439;51.164;13.572;2022-12-11T09:16:40;99465.39;;;-1.15;90.23
60611;BME280;46439;51.164;13.572;2022-12-11T09:19:13;99467.10;;;-1.19;90.09
60611;BME280;46439;51.164;13.572;2022-12-11T09:21:43;99463.95;;;-1.22;90.05
60611;BME280;46439;51.164;13.572;2022-12-11T09:24:14;99465.56;;;-1.13;90.03
60611;BME280;46439;51.164;13.572;2022-12-11T09:26:44;99460.41;;;-1.08;90.12
60611;BME280;46439;51.164;13.572;2022-12-11T09:29:15;99455.04;;;-1.09;90.12
60611;BME280;46439;51.164;13.572;2022-12-11T09:31:45;99456.45;;;-1.06;90.31
60611;BME280;46439;51.164;13.572;2022-12-11T09:34:15;99458.09;;;-1.03;90.19
60611;BME280;46439;51.164;13.572;2022-12-11T09:36:44;99455.08;;;-1.00;90.38
60611;BME280;46439;51.164;13.572;2022-12-11T09:39:15;99460.45;;;-0.97;90.36
60611;BME280;46439;51.164;13.572;2022-12-11T09:41:54;99456.49;;;-0.98;90.27
60611;BME280;46439;51.164;13.572;2022-12-11T09:44:36;99457.57;;;-0.96;90.32
60611;BME280;46439;51.164;13.572;2022-12-11T09:47:16;99452.36;;;-0.94;90.38
60611;BME280;46439;51.164;13.572;2022-12-11T09:49:52;99454.63;;;-0.92;90.31
60611;BME280;46439;51.164;13.572;2022-12-11T09:52:31;99456.46;;;-0.88;90.28
60611;BME280;46439;51.164;13.572;2022-12-11T09:55:02;99457.89;;;-0.84;90.45
60611;BME280;46439;51.164;13.572;2022-12-11T09:57:45;99458.69;;;-0.83;90.48
60611;BME280;46439;51.164;13.572;2022-12-11T10:00:20;99452.81;;;-0.84;90.52
60611;BME280;46439;51.164;13.572;2022-12-11T10:03:04;99452.98;;;-0.82;90.47
60611;BME280;46439;51.164;13.572;2022-12-11T10:05:42;99455.80;;;-0.80;90.32
60611;BME280;46439;51.164;13.572;2022-12-11T10:08:19;99453.13;;;-0.77;90.44
60611;BME280;46439;51.164;13.572;2022-12-11T10:10:55;99443.02;;;-0.77;90.39
60611;BME280;46439;51.164;13.572;2022-12-11T10:13:34;99436.10;;;-0.72;90.24
60611;BME280;46439;51.164;13.572;2022-12-11T10:16:14;99428.80;;;-0.69;90.59
60611;BME280;46439;51.164;13.572;2022-12-11T10:18:47;99423.91;;;-0.67;90.23
60611;BME280;46439;51.164;13.572;2022-12-11T10:21:16;99422.87;;;-0.67;90.31
60611;BME280;46439;51.164;13.572;2022-12-11T10:23:51;99425.41;;;-0.70;90.34
60611;BME280;46439;51.164;13.572;2022-12-11T10:26:22;99424.35;;;-0.68;90.47
60611;BME280;46439;51.164;13.572;2022-12-11T10:28:52;99420.00;;;-0.60;90.45
60611;BME280;46439;51.164;13.572;2022-12-11T10:31:28;99417.73;;;-0.55;90.47
60611;BME280;46439;51.164;13.572;2022-12-11T10:34:02;99419.05;;;-0.59;90.50
60611;BME280;46439;51.164;13.572;2022-12-11T10:36:37;99417.91;;;-0.55;90.61
60611;BME280;46439;51.164;13.572;2022-12-11T10:39:13;99416.48;;;-0.53;90.60
60611;BME280;46439;51.164;13.572;2022-12-11T10:41:46;99414.48;;;-0.48;90.64
60611;BME280;46439;51.164;13.572;2022-12-11T10:44:22;99409.08;;;-0.47;90.59
60611;BME280;46439;51.164;13.572;2022-12-11T10:47:02;99410.83;;;-0.51;90.50
60611;BME280;46439;51.164;13.572;2022-12-11T10:49:34;99410.36;;;-0.54;90.49
60611;BME280;46439;51.164;13.572;2022-12-11T10:52:10;99405.86;;;-0.60;90.36
60611;BME280;46439;51.164;13.572;2022-12-11T10:54:43;99405.69;;;-0.58;90.52
60611;BME280;46439;51.164;13.572;2022-12-11T10:57:15;99401.27;;;-0.60;90.36
60611;BME280;46439;51.164;13.572;2022-12-11T10:59:56;99399.40;;;-0.70;90.26
60611;BME280;46439;51.164;13.572;2022-12-11T11:02:27;99398.45;;;-0.80;89.81
60611;BME280;46439;51.164;13.572;2022-12-11T11:05:00;99399.52;;;-0.83;89.74
60611;BME280;46439;51.164;13.572;2022-12-11T11:07:40;99392.78;;;-0.87;89.65
60611;BME280;46439;51.164;13.572;2022-12-11T11:10:16;99397.77;;;-0.90;89.67
60611;BME280;46439;51.164;13.572;2022-12-11T11:12:47;99403.09;;;-0.90;89.73
60611;BME280;46439;51.164;13.572;2022-12-11T11:15:19;99400.21;;;-0.90;89.67
60611;BME280;46439;51.164;13.572;2022-12-11T11:17:52;99394.38;;;-0.72;89.99
60611;BME280;46439;51.164;13.572;2022-12-11T11:20:21;99390.89;;;-0.54;90.33
60611;BME280;46439;51.164;13.572;2022-12-11T11:22:52;99387.97;;;-0.57;90.41
60611;BME280;46439;51.164;13.572;2022-12-11T11:25:25;99384.27;;;-0.58;90.28
60611;BME280;46439;51.164;13.572;2022-12-11T11:28:14;99383.28;;;-0.54;90.41
60611;BME280;46439;51.164;13.572;2022-12-11T11:31:00;99377.92;;;-0.49;90.41
60611;BME280;46439;51.164;13.572;2022-12-11T11:33:34;99375.52;;;-0.41;90.60
60611;BME280;46439;51.164;13.572;2022-12-11T11:36:06;99373.64;;;-0.42;90.56
60611;BME280;46439;51.164;13.572;2022-12-11T11:38:37;99371.66;;;-0.41;90.36
60611;BME280;46439;51.164;13.572;2022-12-11T11:41:14;99365.48;;;-0.41;90.48
60611;BME280;46439;51.164;13.572;2022-12-11T11:43:47;99362.95;;;-0.43;90.31
60611;BME280;46439;51.164;13.572;2022-12-11T11:46:22;99356.02;;;-0.42;90.20
60611;BME280;46439;51.164;13.572;2022-12-11T11:48:59;99357.08;;;-0.47;90.40
60611;BME280;46439;51.164;13.572;2022-12-11T11:51:36;99352.54;;;-0.47;90.23
60611;BME280;46439;51.164;13.572;2022-12-11T11:54:11;99351.00;;;-0.45;90.00
60611;BME280;46439;51.164;13.572;2022-12-11T11:56:45;99352.60;;;-0.44;90.15
60611;BME280;46439;51.164;13.572;2022-12-11T11:59:19;99353.17;;;-0.42;90.33
60611;BME280;46439;51.164;13.572;2022-12-11T12:01:49;99349.78;;;-0.44;90.18
60611;BME280;46439;51.164;13.572;2022-12-11T12:04:19;99349.09;;;-0.44;90.16
60611;BME280;46439;51.164;13.572;2022-12-11T12:07:09;99347.30;;;-0.48;90.07
60611;BME280;46439;51.164;13.572;2022-12-11T12:09:47;99345.70;;;-0.54;89.97
60611;BME280;46439;51.164;13.572;2022-12-11T12:12:28;99340.42;;;-0.57;89.85
60611;BME280;46439;51.164;13.572;2022-12-11T12:15:17;99344.91;;;-0.63;89.81
60611;BME280;46439;51.164;13.572;2022-12-11T12:17:54;99338.94;;;-0.63;89.75
60611;BME280;46439;51.164;13.572;2022-12-11T12:20:33;99334.19;;;-0.56;89.89
60611;BME280;46439;51.164;13.572;2022-12-11T12:23:15;99338.60;;;-0.56;90.07
60611;BME280;46439;51.164;13.572;2022-12-11T12:25:53;99335.44;;;-0.56;90.11
60611;BME280;46439;51.164;13.572;2022-12-11T12:28:32;99335.83;;;-0.57;89.99
60611;BME280;46439;51.164;13.572;2022-12-11T12:31:22;99335.87;;;-0.58;90.15
60611;BME280;46439;51.164;13.572;2022-12-11T12:34:02;99337.38;;;-0.56;90.02
60611;BME280;46439;51.164;13.572;2022-12-11T12:36:40;99338.30;;;-0.60;89.95
60611;BME280;46439;51.164;13.572;2022-12-11T12:39:22;99338.59;;;-0.65;89.92
60611;BME280;46439;51.164;13.572;2022-12-11T12:42:04;99334.76;;;-0.66;89.77
60611;BME280;46439;51.164;13.572;2022-12-11T12:44:39;99336.27;;;-0.67;89.84
60611;BME280;46439;51.164;13.572;2022-12-11T12:47:13;99333.61;;;-0.65;89.90
60611;BME280;46439;51.164;13.572;2022-12-11T12:49:45;99324.68;;;-0.64;90.07
60611;BME280;46439;51.164;13.572;2022-12-11T12:52:20;99327.59;;;-0.69;89.86
60611;BME280;46439;51.164;13.572;2022-12-11T12:54:54;99322.98;;;-0.73;89.84
60611;BME280;46439;51.164;13.572;2022-12-11T12:57:47;99320.31;;;-0.73;89.81
60611;BME280;46439;51.164;13.572;2022-12-11T13:00:30;99317.73;;;-0.74;89.78
60611;BME280;46439;51.164;13.572;2022-12-11T13:03:11;99315.05;;;-0.76;89.92
60611;BME280;46439;51.164;13.572;2022-12-11T13:05:43;99312.98;;;-0.76;89.97
60611;BME280;46439;51.164;13.572;2022-12-11T13:08:17;99310.26;;;-0.78;89.92
60611;BME280;46439;51.164;13.572;2022-12-11T13:11:01;99308.92;;;-0.81;89.73
60611;BME280;46439;51.164;13.572;2022-12-11T13:13:37;99310.34;;;-0.83;89.70
60611;BME280;46439;51.164;13.572;2022-12-11T13:16:21;99309.27;;;-0.83;89.83
60611;BME280;46439;51.164;13.572;2022-12-11T13:18:52;99308.78;;;-0.86;89.67
60611;BME280;46439;51.164;13.572;2022-12-11T13:21:29;99309.08;;;-0.89;89.65